Time;durP1;ratioP1;P1;durP2;ratioP2;P2;SDS_P1;SDS_P2;PMS_P1;PMS_P2;Temp;Humidity;BMP_temperature;BMP_pressure;BME280_temperature;BME280_humidity;BME280_pressure;Samples;Min_cycle;Max_cycle;Signal;HPM_P1;HPM_P2
2022/08/14 00:01:58;;;;;;;13.05;8.10;;;;;;;20.15;61.15;99316.28;4376841;32;33868;-78
2022/08/14 00:04:30;;;;;;;10.45;7.68;;;;;;;20.12;61.47;99318.91;4377675;32;34538;-79
2022/08/14 00:07:09;;;;;;;12.45;7.82;;;;;;;20.29;61.15;99318.00;4377606;32;33812;-79
2022/08/14 00:09:37;;;;;;;13.38;8.38;;;;;;;20.34;60.99;99311.84;4377337;32;34685;-79
2022/08/14 00:12:25;;;;;;;11.60;7.97;;;;;;;20.42;60.86;99315.34;4377165;32;34013;-79
2022/08/14 00:15:06;;;;;;;12.25;7.93;;;;;;;21.17;58.30;99300.09;4375015;32;34533;-79
2022/08/14 00:17:34;;;;;;;12.15;7.90;;;;;;;21.59;56.81;99308.63;4369661;32;33189;-78
2022/08/14 00:20:15;;;;;;;11.77;7.95;;;;;;;21.27;57.72;99307.06;4375048;32;33817;-79
2022/08/14 00:22:57;;;;;;;11.35;7.43;;;;;;;21.51;56.90;99308.69;4376841;32;34230;-79
2022/08/14 00:25:39;;;;;;;12.23;8.55;;;;;;;20.76;59.47;99309.97;4362982;32;33809;-78
2022/08/14 00:28:11;;;;;;;12.00;7.90;;;;;;;21.09;58.33;99307.19;4345373;32;34153;-79
2022/08/14 00:30:42;;;;;;;12.20;8.07;;;;;;;21.18;57.97;99301.84;4347874;32;33917;-79
2022/08/14 00:33:09;;;;;;;12.82;8.05;;;;;;;21.39;57.17;99296.44;4347426;32;34049;-79
2022/08/14 00:35:44;;;;;;;13.07;7.40;;;;;;;20.97;58.62;99290.56;4349597;32;33652;-78
2022/08/14 00:38:31;;;;;;;12.13;8.00;;;;;;;21.37;57.24;99289.44;4347471;32;33623;-79
2022/08/14 00:41:06;;;;;;;12.95;8.68;;;;;;;21.68;56.22;99292.75;4350092;32;33165;-78
2022/08/14 00:43:37;;;;;;;11.43;8.00;;;;;;;21.14;58.11;99292.22;4351808;32;34066;-79
2022/08/14 00:46:12;;;;;;;11.50;8.18;;;;;;;21.46;57.12;99291.16;4347474;32;33395;-79
2022/08/14 00:49:00;;;;;;;11.50;8.18;;;;;;;21.62;56.64;99289.28;4347830;32;34417;-79
2022/08/14 00:51:31;;;;;;;10.73;7.43;;;;;;;21.55;56.48;99291.94;4356309;32;34536;-79
2022/08/14 00:54:05;;;;;;;12.75;7.57;;;;;;;22.36;54.22;99292.09;4346255;32;32640;-78
2022/08/14 00:56:50;;;;;;;13.27;8.63;;;;;;;22.42;53.70;99294.66;4346910;32;33359;-79
2022/08/14 00:59:24;;;;;;;10.43;7.70;;;;;;;22.69;52.94;99295.22;4354296;32;34411;-78
2022/08/14 01:01:56;;;;;;;11.05;8.35;;;;;;;22.44;53.43;99294.66;4352816;32;33481;-78
2022/08/14 01:04:25;;;;;;;13.10;8.50;;;;;;;20.36;59.17;99296.09;4351958;32;34203;-79
2022/08/14 01:07:19;;;;;;;10.50;7.72;;;;;;;20.31;59.75;99301.34;4339742;32;34328;-78
2022/08/14 01:09:49;;;;;;;12.70;7.97;;;;;;;19.62;61.55;99296.12;4347355;32;34647;-78
2022/08/14 01:12:18;;;;;;;11.82;8.57;;;;;;;19.77;61.21;99296.16;4355170;32;34141;-79
2022/08/14 01:14:58;;;;;;;12.30;8.25;;;;;;;19.75;61.84;99300.53;4346645;32;33894;-79
2022/08/14 01:23:11;;;;;;;13.35;8.63;;;;;;;19.20;65.21;99297.84;4346263;32;33914;-78
2022/08/14 01:25:48;;;;;;;13.73;9.02;;;;;;;19.15;65.43;99296.97;4365379;32;34197;-78
2022/08/14 01:28:21;;;;;;;13.15;8.98;;;;;;;19.35;64.84;99295.22;4378726;32;33906;-78
2022/08/14 01:31:14;;;;;;;12.85;8.20;;;;;;;19.18;65.34;99296.97;4374238;32;33450;-78
2022/08/14 01:33:46;;;;;;;12.35;8.70;;;;;;;19.11;65.99;99295.22;4364908;32;33928;-78
2022/08/14 01:36:38;;;;;;;13.40;8.85;;;;;;;19.10;66.08;99304.81;4373459;32;34558;-79
2022/08/14 01:39:14;;;;;;;12.52;8.70;;;;;;;18.98;66.43;99300.41;4378080;32;33722;-78
2022/08/14 01:41:47;;;;;;;13.50;9.25;;;;;;;19.01;66.25;99304.81;4363606;32;32279;-79
2022/08/14 01:44:16;;;;;;;15.52;9.05;;;;;;;19.23;65.27;99309.22;4378703;32;34458;-78
2022/08/14 01:47:11;;;;;;;12.35;9.00;;;;;;;19.25;65.08;99314.47;4376155;32;33984;-78
2022/08/14 01:49:50;;;;;;;12.18;8.77;;;;;;;18.93;65.99;99310.06;4377859;32;33708;-79
2022/08/14 01:52:35;;;;;;;13.05;8.73;;;;;;;18.97;65.90;99308.31;4376846;32;33616;-79
2022/08/14 01:55:30;;;;;;;14.77;9.00;;;;;;;19.11;65.29;99310.97;4377543;32;34780;-78
2022/08/14 01:57:59;;;;;;;13.70;8.38;;;;;;;19.08;65.42;99303.06;4372815;32;34882;-78
2022/08/14 02:00:52;;;;;;;14.38;8.57;;;;;;;19.21;65.04;99302.22;4371433;32;34327;-78
2022/08/14 02:03:24;;;;;;;13.68;8.82;;;;;;;19.37;64.48;99301.41;4376870;32;33738;-78
2022/08/14 02:06:01;;;;;;;12.00;8.13;;;;;;;19.29;64.64;99308.34;4378373;32;34584;-78
2022/08/14 02:08:48;;;;;;;13.02;8.13;;;;;;;19.18;65.02;99308.34;4369271;32;34244;-78
2022/08/14 02:11:22;;;;;;;15.10;8.82;;;;;;;18.94;65.96;99300.41;4375756;32;33282;-78
2022/08/14 02:13:55;;;;;;;13.90;8.63;;;;;;;19.14;65.54;99317.09;4376803;32;34101;-79
2022/08/14 02:16:24;;;;;;;14.55;9.73;;;;;;;19.31;64.97;99306.59;4372317;32;34064;-78
2022/08/14 02:18:55;;;;;;;13.38;8.70;;;;;;;19.51;64.28;99311.91;4375410;32;33342;-78
2022/08/14 02:21:25;;;;;;;12.70;8.40;;;;;;;19.60;63.93;99308.41;4377583;32;33618;-78
2022/08/14 02:23:54;;;;;;;19.50;8.95;;;;;;;19.43;64.40;99314.53;4360818;32;35549;-78
2022/08/14 02:26:29;;;;;;;14.57;8.82;;;;;;;19.20;65.20;99318.84;4369647;32;34098;-78
2022/08/14 02:29:00;;;;;;;14.23;8.50;;;;;;;18.82;66.38;99304.75;4366303;32;34770;-78
2022/08/14 02:31:32;;;;;;;12.02;8.48;;;;;;;18.85;66.56;99314.37;4363861;32;33493;-78
2022/08/14 02:34:14;;;;;;;14.90;9.02;;;;;;;18.98;66.10;99299.56;4377181;32;33936;-78
2022/08/14 02:36:54;;;;;;;12.68;8.98;;;;;;;19.15;65.69;99296.97;4368158;32;33929;-78
2022/08/14 02:39:34;;;;;;;13.00;8.98;;;;;;;19.04;65.98;99300.47;4376703;32;34007;-78
2022/08/14 02:42:04;;;;;;;14.82;8.38;;;;;;;19.02;65.99;99307.44;4377581;32;32505;-78
2022/08/14 02:44:33;;;;;;;11.80;8.40;;;;;;;18.96;66.27;99311.78;4377691;32;34451;-78
2022/08/14 02:47:07;;;;;;;12.37;8.57;;;;;;;19.09;65.80;99304.84;4377231;32;34068;-78
2022/08/14 02:49:45;;;;;;;11.52;8.45;;;;;;;19.17;65.41;99300.47;4374903;32;33877;-78
2022/08/14 02:52:21;;;;;;;14.63;9.25;;;;;;;19.07;65.92;99309.22;4377584;32;33578;-77
2022/08/14 02:55:09;;;;;;;12.25;8.43;;;;;;;18.87;66.80;99307.37;4377872;32;33867;-78
2022/08/14 02:57:37;;;;;;;12.37;9.15;;;;;;;19.04;66.32;99312.69;4376884;32;33753;-78
2022/08/14 03:00:09;;;;;;;14.25;9.57;;;;;;;19.00;66.53;99317.03;4377635;32;33194;-78
2022/08/14 03:02:37;;;;;;;13.07;9.10;;;;;;;18.99;66.72;99315.31;4370628;32;33742;-78
2022/08/14 03:05:28;;;;;;;13.18;8.73;;;;;;;18.91;67.15;99309.16;4376029;32;34186;-78
2022/08/14 03:08:11;;;;;;;13.13;9.02;;;;;;;18.62;68.17;99307.28;4377836;32;32492;-78
2022/08/14 03:10:42;;;;;;;14.20;9.05;;;;;;;18.63;68.36;99314.25;4378027;32;34615;-78
2022/08/14 03:13:19;;;;;;;13.43;9.43;;;;;;;18.54;68.93;99319.47;4364570;32;33619;-78
2022/08/14 03:15:53;;;;;;;12.55;8.82;;;;;;;18.64;68.50;99305.53;4373350;32;33682;-78
2022/08/14 03:18:26;;;;;;;14.52;9.70;;;;;;;18.77;68.10;99316.06;4377735;32;33884;-78
2022/08/14 03:21:00;;;;;;;13.73;9.10;;;;;;;18.76;68.13;99319.56;4378025;32;34699;-78
2022/08/14 03:23:33;;;;;;;14.77;9.30;;;;;;;18.87;67.79;99320.50;4377203;32;32850;-78
2022/08/14 03:26:07;;;;;;;12.98;8.93;;;;;;;19.02;67.17;99322.31;4374577;32;34093;-78
2022/08/14 03:28:40;;;;;;;;;;;;;;;18.79;68.01;99319.56;4377520;32;34048;-78
2022/08/14 03:31:09;;;;;;;13.27;8.73;;;;;;;18.76;68.43;99319.56;4376991;32;35233;-78
2022/08/14 03:33:41;;;;;;;13.55;8.68;;;;;;;19.92;64.09;99320.69;4376705;32;33610;-78
2022/08/14 03:36:13;;;;;;;14.43;8.05;;;;;;;20.58;61.36;99323.19;4376877;32;33901;-78
2022/08/14 03:39:04;;;;;;;10.65;7.93;;;;;;;20.06;62.93;99321.53;4376694;32;34784;-79
2022/08/14 03:41:54;;;;;;;10.93;8.00;;;;;;;19.16;66.09;99324.97;4367558;32;34955;-79
2022/08/14 03:44:22;;;;;;;13.27;8.48;;;;;;;18.41;69.29;99318.53;4374496;32;33544;-79
2022/08/14 03:47:11;;;;;;;12.65;8.60;;;;;;;18.12;71.26;99320.09;4377845;32;34471;-78
2022/08/14 03:49:44;;;;;;;14.38;8.35;;;;;;;18.82;68.32;99320.50;4363823;32;33998;-78
2022/08/14 03:52:17;;;;;;;13.27;8.48;;;;;;;18.30;70.46;99316.72;4372242;32;33723;-78
2022/08/14 03:55:10;;;;;;;11.43;8.02;;;;;;;18.34;70.58;99315.87;4375162;32;33998;-78
2022/08/14 03:57:39;;;;;;;11.02;7.22;;;;;;;18.33;70.47;99311.47;4377478;32;33853;-78
2022/08/14 04:00:10;;;;;;;13.35;8.40;;;;;;;18.47;70.04;99317.69;4376018;32;34580;-78
2022/08/14 04:02:40;;;;;;;12.52;7.93;;;;;;;18.27;71.02;99320.19;4375520;32;34269;-78
2022/08/14 04:05:14;;;;;;;12.07;7.82;;;;;;;18.26;71.32;99319.31;4376490;32;33655;-78
2022/08/14 04:07:43;;;;;;;13.77;8.63;;;;;;;18.06;72.23;99316.59;4367540;32;34356;-78
2022/08/14 04:10:26;;;;;;;12.63;8.15;;;;;;;18.14;72.17;99316.63;4376582;32;33876;-79
2022/08/14 04:13:00;;;;;;;12.65;7.62;;;;;;;18.52;70.48;99322.94;4376915;32;34248;-78
2022/08/14 04:15:33;;;;;;;14.95;7.72;;;;;;;18.36;71.11;99324.63;4376038;32;33375;-78
2022/08/14 04:18:21;;;;;;;12.13;7.50;;;;;;;18.61;70.32;99326.50;4367029;32;33941;-78
2022/08/14 04:20:48;;;;;;;10.70;7.25;;;;;;;18.72;69.95;99330.94;4367861;32;33921;-79
2022/08/14 04:23:23;;;;;;;13.18;7.95;;;;;;;18.49;70.91;99329.06;4375758;32;33956;-78
2022/08/14 04:26:00;;;;;;;13.48;8.43;;;;;;;18.54;70.87;99329.94;4364540;32;33587;-78
2022/08/14 04:28:29;;;;;;;12.43;7.97;;;;;;;18.54;70.76;99329.06;4377309;32;33937;-78
2022/08/14 04:31:18;;;;;;;10.70;6.72;;;;;;;18.62;70.41;99332.59;4375814;32;33700;-78
2022/08/14 04:34:06;;;;;;;10.57;6.97;;;;;;;19.02;68.81;99331.03;4362677;32;32691;-78
2022/08/14 04:43:34;;;;;;;11.55;7.40;;;;;;;18.79;70.10;99343.19;4374926;32;34292;-78
2022/08/14 04:45:22;;;;;;;12.45;7.37;;;;;;;18.79;70.06;99345.81;4344094;32;34648;-78
2022/08/14 04:50:50;;;;;;;13.05;8.60;;;;;;;19.16;69.31;99338.09;4378356;32;33870;-78
2022/08/14 04:53:23;;;;;;;13.02;8.65;;;;;;;19.53;68.01;99330.28;4377500;32;32558;-78
2022/08/14 04:55:53;;;;;;;14.02;9.82;;;;;;;19.22;69.04;99325.00;4377684;32;34162;-78
2022/08/14 04:58:26;;;;;;;15.27;9.18;;;;;;;19.20;69.37;99334.59;4378040;32;33763;-78
2022/08/14 05:01:05;;;;;;;15.50;10.15;;;;;;;19.41;68.74;99331.13;4378646;32;34641;-78
2022/08/14 05:03:40;;;;;;;14.75;9.52;;;;;;;19.88;67.06;99337.34;4377465;32;34740;-78
2022/08/14 05:06:11;;;;;;;14.73;9.70;;;;;;;20.19;65.86;99336.44;4375926;32;34842;-78
2022/08/14 05:08:58;;;;;;;14.15;9.52;;;;;;;20.02;66.79;99335.56;4366862;32;33703;-78
2022/08/14 05:11:29;;;;;;;15.60;9.55;;;;;;;19.61;68.52;99336.44;4364001;32;33321;-78
2022/08/14 05:13:56;;;;;;;17.17;10.73;;;;;;;19.53;69.23;99335.53;4374957;32;33928;-78
2022/08/14 05:16:45;;;;;;;14.63;9.98;;;;;;;20.09;67.00;99342.59;4378653;32;34018;-78
2022/08/14 05:19:13;;;;;;;17.20;10.45;;;;;;;20.41;66.23;99344.28;4368065;32;33216;-78
2022/08/14 05:21:55;;;;;;;16.67;10.95;;;;;;;20.29;66.54;99333.78;4376356;32;33732;-78
2022/08/14 05:24:42;;;;;;;15.07;10.50;;;;;;;19.95;67.77;99339.97;4374082;32;33703;-78
2022/08/14 05:27:10;;;;;;;17.12;10.60;;;;;;;20.28;66.63;99342.53;4377761;32;34153;-78
2022/08/14 05:29:37;;;;;;;16.67;10.80;;;;;;;20.46;65.88;99337.25;4376317;32;34390;-78
2022/08/14 05:32:06;;;;;;;17.67;10.13;;;;;;;20.52;65.79;99337.22;4376210;32;34669;-78
2022/08/14 05:34:34;;;;;;;16.10;9.95;;;;;;;20.38;66.13;99341.66;4364905;32;33737;-78
2022/08/14 05:37:01;;;;;;;17.12;10.63;;;;;;;20.65;65.43;99337.22;4378466;32;34712;-78
2022/08/14 05:39:30;;;;;;;14.35;9.35;;;;;;;20.64;65.37;99340.75;4378265;32;33659;-78
2022/08/14 05:41:58;;;;;;;13.48;9.13;;;;;;;21.29;63.12;99339.53;4378465;32;33565;-78
2022/08/14 05:44:27;;;;;;;17.15;9.85;;;;;;;21.21;63.33;99338.72;4377930;32;34036;-78
2022/08/14 05:46:57;;;;;;;12.93;9.40;;;;;;;22.18;60.63;99340.63;4366597;32;33244;-78
2022/08/14 05:49:25;;;;;;;12.50;8.48;;;;;;;22.92;57.94;99337.19;4377806;32;34274;-78
2022/08/14 05:52:00;;;;;;;;;;;;;;;23.19;56.51;99338.63;4378725;32;33849;-78
2022/08/14 05:54:29;;;;;;;11.95;8.10;;;;;;;23.39;56.15;99340.09;4377797;32;33896;-78
2022/08/14 05:57:03;;;;;;;11.85;7.50;;;;;;;23.36;55.90;99336.59;4377255;32;33681;-78
2022/08/14 05:59:32;;;;;;;11.45;7.40;;;;;;;23.45;55.70;99340.00;4376945;32;33622;-78
2022/08/14 06:02:07;;;;;;;12.43;7.75;;;;;;;23.05;56.75;99341.44;4365592;32;33756;-78
2022/08/14 06:04:38;;;;;;;10.77;7.93;;;;;;;22.92;57.28;99340.69;4375408;32;34120;-78
2022/08/14 06:07:05;;;;;;;11.10;7.57;;;;;;;23.27;56.48;99342.00;4377658;32;34071;-78
2022/08/14 06:09:33;;;;;;;15.90;7.53;;;;;;;23.20;56.44;99340.38;4375955;32;33807;-78
2022/08/14 06:12:07;;;;;;;12.27;7.43;;;;;;;23.84;54.86;99337.69;4377158;32;33717;-79
2022/08/14 06:14:36;;;;;;;10.82;7.37;;;;;;;23.43;55.19;99339.16;4377314;32;34043;-78
2022/08/14 06:17:05;;;;;;;11.27;7.10;;;;;;;23.74;54.92;99332.50;4376795;32;34179;-78
2022/08/14 06:19:33;;;;;;;11.30;7.50;;;;;;;24.09;53.61;99327.53;4351927;32;31952;-78
2022/08/14 06:22:00;;;;;;;14.38;7.65;;;;;;;24.39;53.21;99328.72;4375505;32;34778;-78
2022/08/14 06:24:29;;;;;;;13.05;7.95;;;;;;;24.29;53.53;99324.53;4377021;32;34788;-78
2022/08/14 06:27:03;;;;;;;11.48;7.30;;;;;;;24.41;53.42;99329.56;4378046;32;33909;-79
2022/08/14 06:29:33;;;;;;;10.93;7.82;;;;;;;23.41;56.23;99325.09;4377520;32;33593;-78
2022/08/14 06:32:02;;;;;;;10.82;7.65;;;;;;;23.82;55.25;99323.59;4377697;32;33963;-78
2022/08/14 06:34:50;;;;;;;12.77;8.27;;;;;;;24.59;53.46;99330.13;4366473;32;33919;-79
2022/08/14 06:37:39;;;;;;;14.52;8.02;;;;;;;23.86;55.25;99330.59;4371961;32;33756;-79
2022/08/14 06:40:09;;;;;;;10.10;7.12;;;;;;;24.81;52.74;99320.88;4377212;32;33615;-79
2022/08/14 06:42:58;;;;;;;9.43;6.75;;;;;;;25.25;51.69;99324.34;4376847;32;34193;-79
2022/08/14 06:45:34;;;;;;;8.50;6.32;;;;;;;24.92;51.71;99324.16;4376116;32;33804;-79
2022/08/14 06:48:03;;;;;;;10.40;6.47;;;;;;;24.81;51.71;99310.25;4377603;32;34001;-78
2022/08/14 06:50:38;;;;;;;12.20;6.75;;;;;;;24.96;51.32;99317.03;4374782;32;34386;-79
2022/08/14 06:53:06;;;;;;;10.00;6.75;;;;;;;25.36;50.49;99304.66;4375709;32;33913;-81
2022/08/14 06:55:34;;;;;;;11.32;6.60;;;;;;;26.07;49.09;99309.13;4376153;32;32692;-82
2022/08/14 06:58:13;;;;;;;9.68;6.28;;;;;;;26.07;48.69;99299.37;4375779;32;34180;-82
2022/08/14 07:06:53;;;;;;;8.43;6.43;;;;;;;27.05;46.67;99289.53;4376407;32;34053;-82
2022/08/14 07:09:23;;;;;;;10.23;6.97;;;;;;;28.18;44.35;99300.06;4376592;32;34642;-81
2022/08/14 07:11:50;;;;;;;8.68;6.22;;;;;;;29.09;42.48;99294.94;4375248;32;33338;-81
2022/08/14 07:14:18;;;;;;;8.70;5.93;;;;;;;30.30;39.94;99297.03;4376619;32;32571;-81
2022/08/14 07:16:45;;;;;;;10.30;6.12;;;;;;;31.36;37.96;99291.31;4376626;32;33698;-83
2022/08/14 07:19:16;;;;;;;10.43;6.05;;;;;;;31.58;36.65;99296.50;4376558;32;32877;-81
2022/08/14 07:21:48;;;;;;;8.27;5.90;;;;;;;33.32;33.70;99291.81;4376693;32;33779;-82
2022/08/14 07:24:17;;;;;;;10.85;6.25;;;;;;;33.87;32.36;99291.31;4375335;32;32535;-83
2022/08/14 07:26:52;;;;;;;13.88;6.50;;;;;;;35.14;29.98;99282.56;4376992;32;33785;-82
2022/08/14 07:29:21;;;;;;;7.50;6.20;;;;;;;36.00;28.42;99286.75;4366143;32;34571;-83
2022/08/14 07:31:52;;;;;;;8.23;6.03;;;;;;;36.57;27.57;99289.06;4375800;32;34578;-83
2022/08/14 07:34:20;;;;;;;13.90;6.25;;;;;;;37.71;25.95;99282.66;4376575;32;34599;-83
2022/08/14 07:37:07;;;;;;;18.27;6.82;;;;;;;37.81;25.81;99280.09;4374920;32;34600;-82
2022/08/14 07:39:36;;;;;;;8.30;6.12;;;;;;;38.32;24.52;99283.28;4375685;32;32553;-82
2022/08/14 07:42:05;;;;;;;7.53;6.07;;;;;;;38.34;24.65;99280.47;4377669;32;33082;-82
2022/08/14 07:44:33;;;;;;;10.45;6.60;;;;;;;38.31;24.94;99276.19;4376150;32;34122;-82
2022/08/14 07:47:14;;;;;;;7.70;5.70;;;;;;;35.78;28.02;99277.44;4376128;32;33830;-79
2022/08/14 07:50:08;;;;;;;7.95;6.10;;;;;;;37.52;26.20;99277.75;4376225;32;33613;-81
2022/08/14 07:52:41;;;;;;;7.00;5.70;;;;;;;38.63;23.91;99280.03;4375938;32;33333;-81
2022/08/14 07:55:13;;;;;;;8.30;6.20;;;;;;;34.85;29.54;99277.22;4363488;32;32942;-82
2022/08/14 07:57:47;;;;;;;7.47;6.05;;;;;;;34.42;30.21;99279.03;4377772;32;32577;-82
2022/08/14 08:00:21;;;;;;;9.68;6.15;;;;;;;34.14;30.79;99272.66;4359287;32;33223;-82
2022/08/14 08:03:00;;;;;;;8.55;5.93;;;;;;;33.56;31.73;99276.09;4374826;32;33509;-82
2022/08/14 08:05:27;;;;;;;10.68;6.60;;;;;;;33.33;32.40;99272.94;4367990;32;34665;-79
2022/08/14 08:07:55;;;;;;;8.40;6.57;;;;;;;34.69;30.34;99275.59;4377325;32;34960;-80
2022/08/14 08:10:30;;;;;;;9.20;6.45;;;;;;;35.56;28.92;99277.13;4375118;32;33996;-81
2022/08/14 08:13:20;;;;;;;8.88;5.87;;;;;;;32.86;33.24;99271.97;4376025;32;34483;-80
2022/08/14 08:15:55;;;;;;;8.27;6.35;;;;;;;34.61;30.20;99274.22;4377106;32;34563;-81
2022/08/14 08:18:25;;;;;;;9.18;6.60;;;;;;;31.39;35.90;99275.13;4363962;32;33852;-80
2022/08/14 08:20:58;;;;;;;7.93;6.30;;;;;;;32.13;34.71;99284.81;4376788;32;34328;-80
2022/08/14 08:23:28;;;;;;;8.10;6.07;;;;;;;31.45;35.17;99274.81;4367331;32;34333;-81
2022/08/14 08:26:07;;;;;;;10.95;6.05;;;;;;;32.76;33.20;99261.81;4381411;32;33440;-80
2022/08/14 08:28:35;;;;;;;8.32;6.37;;;;;;;34.80;29.85;99267.72;4379644;32;33981;-82
2022/08/14 08:31:05;;;;;;;9.63;6.50;;;;;;;35.03;29.09;99264.41;4380896;32;34860;-82
2022/08/14 08:33:35;;;;;;;8.70;5.93;;;;;;;33.16;31.68;99259.63;4383017;32;32478;-81
2022/08/14 08:36:06;;;;;;;9.77;5.97;;;;;;;35.91;27.67;99263.13;4382375;32;32412;-81
2022/08/14 08:38:38;;;;;;;8.10;5.87;;;;;;;36.56;25.97;99263.06;4381000;32;33912;-82
2022/08/14 08:41:27;;;;;;;7.10;5.60;;;;;;;36.47;26.14;99265.56;4379831;32;33892;-81
2022/08/14 08:44:03;;;;;;;9.53;5.87;;;;;;;37.49;24.60;99256.34;4368520;32;33571;-81
2022/08/14 08:46:32;;;;;;;7.37;6.05;;;;;;;36.64;25.92;99261.66;4381948;32;33577;-81
2022/08/14 08:49:02;;;;;;;8.63;6.30;;;;;;;35.47;28.15;99264.31;4381410;32;32667;-81
2022/08/14 08:51:37;;;;;;;7.20;5.25;;;;;;;36.66;26.22;99262.44;4381069;32;34424;-79
2022/08/14 08:54:12;;;;;;;8.13;6.30;;;;;;;36.69;25.86;99262.22;4380791;32;34274;-78
2022/08/14 08:56:53;;;;;;;8.90;6.80;;;;;;;36.42;26.42;99255.09;4376728;32;33938;-78
2022/08/14 08:59:27;;;;;;;8.48;6.28;;;;;;;32.91;31.73;99252.91;4378787;32;34055;-80
2022/08/14 09:02:03;;;;;;;9.10;5.90;;;;;;;34.06;30.64;99243.56;4366533;32;34003;-77
2022/08/14 09:04:37;;;;;;;8.30;6.35;;;;;;;33.56;30.97;99236.69;4378230;32;85365;-78
2022/08/14 09:07:25;;;;;;;7.95;6.50;;;;;;;34.72;29.67;99238.63;4380044;32;33891;-77
2022/08/14 09:09:55;;;;;;;10.88;6.40;;;;;;;33.92;30.62;99235.47;4375247;32;34833;-78
2022/08/14 09:12:32;;;;;;;10.57;6.80;;;;;;;34.26;30.55;99236.09;4381317;32;34143;-78
2022/08/14 09:15:05;;;;;;;10.40;6.78;;;;;;;34.52;30.08;99238.97;4381318;32;33792;-79
2022/08/14 09:17:40;;;;;;;9.93;6.60;;;;;;;34.06;30.75;99240.00;4367159;32;32525;-79
2022/08/14 09:20:10;;;;;;;8.35;6.30;;;;;;;34.43;30.11;99237.75;4380677;32;33168;-79
2022/08/14 09:22:42;;;;;;;9.00;6.57;;;;;;;34.17;30.77;99234.88;4376892;32;34244;-78
2022/08/14 09:25:16;;;;;;;9.40;6.53;;;;;;;34.00;30.72;99235.88;4377724;32;33274;-80
2022/08/14 09:28:04;;;;;;;8.45;6.65;;;;;;;34.50;29.89;99222.06;4364915;32;33082;-79
2022/08/14 09:30:35;;;;;;;10.13;7.53;;;;;;;33.65;31.36;99233.50;4379884;32;33680;-79
2022/08/14 09:33:23;;;;;;;11.60;7.45;;;;;;;33.40;31.05;99226.00;4364183;32;33909;-79
2022/08/14 09:36:03;;;;;;;8.90;6.55;;;;;;;32.78;32.17;99225.03;4378571;32;33587;-82
2022/08/14 09:38:44;;;;;;;7.62;5.95;;;;;;;33.68;30.74;99224.37;4374631;32;33267;-78
2022/08/14 09:41:50;;;;;;;9.00;6.20;;;;;;;33.85;29.14;99218.84;4373726;32;33999;-78
2022/08/14 09:44:44;;;;;;;8.73;6.03;;;;;;;34.42;29.13;99214.50;4370714;32;34205;-76
2022/08/14 09:47:16;;;;;;;11.88;6.28;;;;;;;34.54;28.94;99219.12;4374181;32;33755;-77
2022/08/14 09:49:43;;;;;;;8.07;5.65;;;;;;;34.74;27.51;99208.94;4367126;32;33747;-78
2022/08/14 09:52:21;;;;;;;6.80;5.53;;;;;;;33.52;27.89;99212.81;4374992;32;33682;-78
2022/08/14 09:55:00;;;;;;;7.35;4.95;;;;;;;33.84;27.42;99217.13;4360814;32;34117;-78
2022/08/14 09:57:29;;;;;;;10.25;4.90;;;;;;;33.67;25.82;99206.56;4364327;32;33428;-77
2022/08/14 10:00:09;;;;;;;8.32;5.20;;;;;;;34.32;25.75;99202.59;4364350;32;33844;-79
2022/08/14 10:03:01;;;;;;;14.23;5.20;;;;;;;35.31;24.71;99203.41;4378894;32;33939;-77
2022/08/14 10:05:33;;;;;;;7.78;5.30;;;;;;;34.98;25.10;99199.25;4377863;32;34903;-80
2022/08/14 10:08:15;;;;;;;;;;;;;;;35.07;25.20;99194.22;4376882;32;33536;-77
2022/08/14 10:10:51;;;;;;;6.60;5.28;;;;;;;35.17;24.56;99208.81;4378843;32;34772;-78
2022/08/14 10:13:29;;;;;;;6.78;4.62;;;;;;;35.37;24.18;99202.97;4379031;32;34633;-79
2022/08/14 10:16:17;;;;;;;6.57;5.15;;;;;;;35.02;24.92;99198.09;4378962;32;34249;-78
2022/08/14 10:19:14;;;;;;;7.32;5.18;;;;;;;35.59;23.77;99207.75;4373791;32;34590;-78
2022/08/14 10:21:54;;;;;;;8.25;5.78;;;;;;;33.79;25.84;99197.75;4370578;32;33826;-77
2022/08/14 10:24:45;;;;;;;7.00;4.72;;;;;;;33.59;26.68;99198.91;4360528;32;33972;-78
2022/08/14 10:27:22;;;;;;;7.37;5.50;;;;;;;32.85;26.69;99194.25;4378135;32;33750;-77
2022/08/14 10:29:54;;;;;;;7.28;4.80;;;;;;;33.75;26.29;99187.28;4378766;32;34479;-78
2022/08/14 10:32:25;;;;;;;7.47;4.68;;;;;;;34.57;24.53;99189.31;4378402;32;33549;-79
2022/08/14 10:35:08;;;;;;;6.82;4.82;;;;;;;34.13;24.45;99192.09;4373660;32;33849;-78
2022/08/14 10:37:45;;;;;;;7.35;5.15;;;;;;;34.53;24.51;99195.84;4378695;32;34194;-79
2022/08/14 10:40:16;;;;;;;6.57;4.90;;;;;;;34.65;23.85;99189.72;4379046;32;34115;-79
2022/08/14 10:43:15;;;;;;;7.28;5.53;;;;;;;34.05;25.64;99190.75;4365359;32;33367;-78
2022/08/14 10:45:53;;;;;;;12.37;5.65;;;;;;;34.07;25.20;99182.59;4378570;32;34598;-78
2022/08/14 10:48:41;;;;;;;6.65;4.97;;;;;;;32.71;26.65;99187.84;4378721;32;34656;-78
2022/08/14 10:51:23;;;;;;;6.75;4.97;;;;;;;32.08;27.28;99185.91;4378720;32;33657;-78
2022/08/14 10:53:54;;;;;;;8.35;5.32;;;;;;;33.09;26.56;99187.50;4367314;32;33875;-78
2022/08/14 10:56:32;;;;;;;13.32;5.70;;;;;;;33.91;25.49;99176.47;4378937;32;33997;-78
2022/08/14 10:59:07;;;;;;;8.07;5.32;;;;;;;33.28;25.52;99183.75;4378674;32;34091;-78
2022/08/14 11:01:37;;;;;;;6.65;4.80;;;;;;;33.14;25.11;99184.56;4378687;32;33708;-78
2022/08/14 11:04:27;;;;;;;6.82;5.15;;;;;;;33.08;25.24;99183.06;4378697;32;33675;-79
2022/08/14 11:06:58;;;;;;;7.53;4.80;;;;;;;34.26;23.37;99182.34;4372814;32;33915;-77
2022/08/14 11:09:25;;;;;;;5.62;4.03;;;;;;;34.49;23.09;99167.44;4365062;32;33902;-78
2022/08/14 11:12:00;;;;;;;6.20;4.55;;;;;;;34.80;22.13;99170.87;4378671;32;34351;-78
2022/08/14 11:14:58;;;;;;;9.27;4.62;;;;;;;35.84;21.08;99179.16;4365009;32;33575;-78
2022/08/14 11:17:33;;;;;;;6.95;4.45;;;;;;;35.31;21.82;99171.09;4378450;32;34684;-77
2022/08/14 11:20:03;;;;;;;6.80;4.07;;;;;;;35.41;21.15;99166.78;4378363;32;34777;-77
2022/08/14 11:22:31;;;;;;;5.80;3.95;;;;;;;35.70;19.99;99155.87;4378713;32;33652;-78
2022/08/14 11:25:22;;;;;;;7.70;4.82;;;;;;;34.76;20.81;99153.19;4367373;32;34449;-78
2022/08/14 11:27:52;;;;;;;6.53;4.90;;;;;;;35.29;20.57;99151.47;4378638;32;33719;-76
2022/08/14 11:30:23;;;;;;;7.68;5.05;;;;;;;33.73;22.71;99155.16;4378558;32;33923;-77
2022/08/14 11:33:11;;;;;;;8.38;5.50;;;;;;;34.88;21.84;99146.16;4378659;32;33307;-78
2022/08/14 11:35:40;;;;;;;10.23;6.10;;;;;;;34.52;23.09;99144.84;4377063;32;33816;-77
2022/08/14 11:38:18;;;;;;;7.30;5.37;;;;;;;33.47;24.99;99138.75;4365887;32;34635;-77
2022/08/14 11:40:46;;;;;;;6.20;4.60;;;;;;;33.15;25.32;99134.44;4378630;32;34134;-77
2022/08/14 11:43:15;;;;;;;7.20;4.55;;;;;;;33.77;23.04;99124.44;4378318;32;33355;-78
2022/08/14 11:45:46;;;;;;;6.28;4.62;;;;;;;34.44;22.81;99131.91;4378287;32;34566;-78
2022/08/14 11:48:24;;;;;;;6.68;4.90;;;;;;;34.62;22.60;99129.88;4378711;32;34624;-78
2022/08/14 11:51:13;;;;;;;7.53;5.00;;;;;;;34.26;22.95;99118.69;4378293;32;33660;-77
2022/08/14 11:53:50;;;;;;;7.30;5.28;;;;;;;35.31;21.57;99121.75;4378170;32;33338;-78
2022/08/14 11:56:18;;;;;;;6.03;4.78;;;;;;;34.37;23.25;99119.84;4377338;32;33854;-77
2022/08/14 11:58:56;;;;;;;6.82;4.72;;;;;;;34.93;22.68;99115.28;4378262;32;34842;-79
2022/08/14 12:01:30;;;;;;;6.72;4.75;;;;;;;35.71;21.88;99109.09;4378128;32;33907;-78
2022/08/14 12:04:18;;;;;;;7.47;4.73;;;;;;;35.03;21.78;99100.22;4364940;32;34278;-79
2022/08/14 12:06:59;;;;;;;6.43;4.35;;;;;;;34.19;22.64;99101.25;4378038;32;33738;-78
2022/08/14 12:09:34;;;;;;;9.32;4.85;;;;;;;35.03;22.42;99096.69;4377951;32;34781;-78
2022/08/14 12:12:17;;;;;;;8.57;4.53;;;;;;;35.59;21.90;99104.53;4378169;32;34091;-78
2022/08/14 12:15:04;;;;;;;9.93;5.05;;;;;;;35.07;22.17;99102.72;4378234;32;33731;-77
2022/08/14 12:17:50;;;;;;;6.25;4.60;;;;;;;34.81;22.13;99092.75;4375757;32;32978;-78
2022/08/14 12:20:28;;;;;;;8.68;5.00;;;;;;;34.81;22.78;99099.97;4368115;32;33687;-77
2022/08/14 12:23:00;;;;;;;8.93;4.85;;;;;;;34.41;22.80;99099.84;4377922;32;34870;-78
2022/08/14 12:25:33;;;;;;;7.32;4.35;;;;;;;35.58;21.61;99097.41;4377653;32;33645;-78
2022/08/14 12:28:09;;;;;;;6.50;4.30;;;;;;;34.98;21.62;99090.72;4378121;32;33898;-78
2022/08/14 12:30:53;;;;;;;8.57;4.35;;;;;;;34.98;21.50;99088.03;4377822;32;33902;-78